createdAt,value
2024-01-05T00:00:19.988Z,100.00
2024-01-05T00:02:46.729Z,100.00
2024-01-05T00:05:13.558Z,100.00
2024-01-05T00:07:40.284Z,100.00
2024-01-05T00:10:07.795Z,100.00
2024-01-05T00:12:34.560Z,100.00
2024-01-05T00:15:01.383Z,100.00
2024-01-05T00:17:28.194Z,100.00
2024-01-05T00:19:55.043Z,100.00
2024-01-05T00:22:22.221Z,99.80
2024-01-05T00:24:48.862Z,93.59
2024-01-05T00:27:16.075Z,96.72
2024-01-05T00:29:42.664Z,98.29
2024-01-05T00:32:09.385Z,100.00
2024-01-05T00:34:37.383Z,100.00
2024-01-05T00:37:04.825Z,100.00
2024-01-05T00:39:31.616Z,100.00
2024-01-05T00:41:59.148Z,98.71
2024-01-05T00:44:28.238Z,99.22
2024-01-05T00:46:55.061Z,97.01
2024-01-05T00:49:21.875Z,97.87
2024-01-05T00:51:48.788Z,95.65
2024-01-05T00:54:15.666Z,95.78
2024-01-05T00:56:42.662Z,98.22
2024-01-05T00:59:09.472Z,100.00
2024-01-05T01:01:36.269Z,100.00
2024-01-05T01:04:03.204Z,100.00
2024-01-05T01:06:30.190Z,100.00
2024-01-05T01:08:57.018Z,100.00
2024-01-05T01:11:28.164Z,100.00
2024-01-05T01:13:55.386Z,100.00
2024-01-05T01:16:22.132Z,100.00
2024-01-05T01:18:49.134Z,100.00
2024-01-05T01:21:16.026Z,100.00
2024-01-05T01:23:42.827Z,100.00
2024-01-05T01:26:09.681Z,100.00
2024-01-05T01:28:36.395Z,100.00
2024-01-05T01:31:03.370Z,100.00
2024-01-05T01:33:30.254Z,100.00
2024-01-05T01:35:57.072Z,100.00
2024-01-05T01:38:23.807Z,100.00
2024-01-05T01:40:50.961Z,100.00
2024-01-05T01:43:23.533Z,100.00
2024-01-05T01:45:50.667Z,100.00
2024-01-05T01:48:19.671Z,100.00
2024-01-05T01:50:48.289Z,100.00
2024-01-05T01:53:16.923Z,99.82
2024-01-05T01:55:44.322Z,96.49
2024-01-05T01:58:13.789Z,96.82
2024-01-05T02:00:40.719Z,98.99
2024-01-05T02:03:07.798Z,97.66
2024-01-05T02:05:34.836Z,97.33
2024-01-05T02:08:01.574Z,98.18
2024-01-05T02:10:28.333Z,100.00
2024-01-05T02:12:55.539Z,100.00
2024-01-05T02:15:22.508Z,100.00
2024-01-05T02:17:49.608Z,100.00
2024-01-05T02:20:16.265Z,100.00
2024-01-05T02:22:48.258Z,100.00
2024-01-05T02:25:14.987Z,100.00
2024-01-05T02:27:42.000Z,100.00
2024-01-05T02:30:09.194Z,100.00
2024-01-05T02:32:35.909Z,100.00
2024-01-05T02:35:02.768Z,100.00
2024-01-05T02:37:30.526Z,100.00
2024-01-05T02:39:57.292Z,100.00
2024-01-05T02:42:24.134Z,100.00
2024-01-05T02:44:51.088Z,100.00
2024-01-05T02:47:17.868Z,100.00
2024-01-05T02:49:44.861Z,100.00
2024-01-05T02:52:11.782Z,100.00
2024-01-05T02:54:39.254Z,100.00
2024-01-05T02:57:06.075Z,100.00
2024-01-05T02:59:32.813Z,100.00
2024-01-05T03:02:01.365Z,100.00
2024-01-05T03:04:28.155Z,100.00
2024-01-05T03:06:54.914Z,100.00
2024-01-05T03:09:21.685Z,100.00
2024-01-05T03:11:48.682Z,100.00
2024-01-05T03:14:16.869Z,100.00
2024-01-05T03:16:43.949Z,100.00
2024-01-05T03:19:11.179Z,100.00
2024-01-05T03:21:38.052Z,100.00
2024-01-05T03:24:05.336Z,100.00
2024-01-05T03:26:31.937Z,100.00
2024-01-05T03:28:58.674Z,100.00
2024-01-05T03:31:27.105Z,100.00
2024-01-05T03:33:54.075Z,100.00
2024-01-05T03:36:21.321Z,100.00
2024-01-05T03:38:48.128Z,100.00
2024-01-05T03:41:15.335Z,99.60
2024-01-05T03:43:42.096Z,98.84
2024-01-05T03:46:12.464Z,98.67
2024-01-05T03:48:40.076Z,99.98
2024-01-05T03:51:06.960Z,100.00
2024-01-05T03:53:33.770Z,100.00
2024-01-05T03:56:01.364Z,100.00
2024-01-05T03:58:29.478Z,100.00
2024-01-05T04:00:57.249Z,100.00
2024-01-05T04:03:24.179Z,100.00
2024-01-05T04:05:51.335Z,100.00
2024-01-05T04:08:18.256Z,100.00
2024-01-05T04:10:45.032Z,100.00
2024-01-05T04:13:11.774Z,100.00
2024-01-05T04:15:39.571Z,100.00
2024-01-05T04:18:06.919Z,100.00
2024-01-05T04:20:34.134Z,100.00
2024-01-05T04:23:01.628Z,100.00
2024-01-05T04:25:28.366Z,100.00
2024-01-05T04:27:56.090Z,100.00
2024-01-05T04:30:22.891Z,100.00
2024-01-05T04:32:50.597Z,100.00
2024-01-05T04:35:17.448Z,100.00
2024-01-05T04:37:44.215Z,96.67
2024-01-05T04:40:12.085Z,100.00
2024-01-05T04:42:38.921Z,100.00
2024-01-05T04:45:06.407Z,100.00
2024-01-05T04:47:36.137Z,100.00
2024-01-05T04:50:04.723Z,100.00
2024-01-05T04:52:31.500Z,100.00
2024-01-05T04:54:58.220Z,99.70
2024-01-05T04:57:25.041Z,98.33
2024-01-05T04:59:51.816Z,95.93
2024-01-05T05:02:18.629Z,96.38
2024-01-05T05:04:47.391Z,98.21
2024-01-05T05:07:16.915Z,98.06
2024-01-05T05:09:43.758Z,97.86
2024-01-05T05:12:10.530Z,96.70
2024-01-05T05:14:38.592Z,95.48
2024-01-05T05:17:05.561Z,95.24
2024-01-05T05:19:32.437Z,94.04
2024-01-05T05:21:59.340Z,95.39
2024-01-05T05:24:26.163Z,93.26
2024-01-05T05:26:52.921Z,94.72
2024-01-05T05:29:19.672Z,97.76
2024-01-05T05:31:46.724Z,98.53
2024-01-05T05:34:13.878Z,98.66
2024-01-05T05:36:40.727Z,99.32
2024-01-05T05:39:07.519Z,99.14
2024-01-05T05:41:34.258Z,100.00
2024-01-05T05:44:01.045Z,99.57
2024-01-05T05:46:28.046Z,98.73
2024-01-05T05:48:54.877Z,97.84
2024-01-05T05:51:21.822Z,100.00
2024-01-05T05:53:48.598Z,100.00
2024-01-05T05:56:15.330Z,100.00
2024-01-05T05:58:43.734Z,100.00
2024-01-05T06:01:19.314Z,100.00
2024-01-05T06:03:46.289Z,100.00
2024-01-05T06:06:17.986Z,100.00
2024-01-05T06:08:44.837Z,95.45
2024-01-05T06:11:13.840Z,98.87
2024-01-05T06:13:40.647Z,99.00
2024-01-05T06:16:07.454Z,100.00
2024-01-05T06:18:35.028Z,100.00
2024-01-05T06:21:01.859Z,100.00
2024-01-05T06:23:28.613Z,100.00
2024-01-05T06:25:55.369Z,100.00
2024-01-05T06:28:23.504Z,100.00
2024-01-05T06:30:51.630Z,99.51
2024-01-05T06:33:18.505Z,98.65
2024-01-05T06:35:45.317Z,97.48
2024-01-05T06:38:12.140Z,97.46
2024-01-05T06:40:38.915Z,96.33
2024-01-05T06:43:05.683Z,96.97
2024-01-05T06:45:32.473Z,96.53
2024-01-05T06:47:59.475Z,94.53
2024-01-05T06:50:26.530Z,94.78
2024-01-05T06:52:53.382Z,95.99
2024-01-05T06:55:20.638Z,96.60
2024-01-05T06:57:49.111Z,97.52
2024-01-05T07:00:16.400Z,97.97
2024-01-05T07:02:43.214Z,98.95
2024-01-05T07:05:10.076Z,98.56
2024-01-05T07:07:36.827Z,98.57
2024-01-05T07:10:03.895Z,100.00
2024-01-05T07:12:30.786Z,99.02
2024-01-05T07:14:57.582Z,100.00
2024-01-05T07:17:24.426Z,100.00
2024-01-05T07:19:51.194Z,100.00
2024-01-05T07:22:17.925Z,100.00
2024-01-05T07:24:44.668Z,100.00
2024-01-05T07:27:11.968Z,100.00
2024-01-05T07:29:38.742Z,100.00
2024-01-05T07:32:06.008Z,100.00
2024-01-05T07:34:32.733Z,100.00
2024-01-05T07:37:00.040Z,100.00
2024-01-05T07:39:26.667Z,100.00
2024-01-05T07:41:53.409Z,100.00
2024-01-05T07:44:21.250Z,100.00
2024-01-05T07:46:48.245Z,100.00
2024-01-05T07:49:15.184Z,100.00
2024-01-05T07:51:42.628Z,100.00
2024-01-05T07:54:09.658Z,100.00
2024-01-05T07:56:39.892Z,100.00
2024-01-05T07:59:06.938Z,100.00
2024-01-05T08:01:33.819Z,100.00
2024-01-05T08:04:00.945Z,99.59
2024-01-05T08:06:27.975Z,99.30
2024-01-05T08:08:54.906Z,97.98
2024-01-05T08:11:22.752Z,99.20
2024-01-05T08:13:49.602Z,97.23
2024-01-05T08:16:16.386Z,96.13
2024-01-05T08:18:43.186Z,96.98
2024-01-05T08:21:10.185Z,95.99
2024-01-05T08:23:37.842Z,96.58
2024-01-05T08:26:05.207Z,96.56
2024-01-05T08:28:32.052Z,93.81
2024-01-05T08:30:59.758Z,94.03
2024-01-05T08:33:27.277Z,93.06
2024-01-05T08:35:54.141Z,94.50
2024-01-05T08:38:21.106Z,94.12
2024-01-05T08:40:50.649Z,95.63
2024-01-05T08:43:18.496Z,94.29
2024-01-05T08:45:46.511Z,95.60
2024-01-05T08:48:16.545Z,94.25
2024-01-05T08:50:44.159Z,93.83
2024-01-05T08:53:10.989Z,89.13
2024-01-05T08:55:37.778Z,90.92
2024-01-05T08:58:05.503Z,94.86
2024-01-05T09:00:32.713Z,99.17
2024-01-05T09:02:59.464Z,100.00
2024-01-05T09:05:26.317Z,99.04
2024-01-05T09:07:54.593Z,98.14
2024-01-05T09:10:21.368Z,98.09
2024-01-05T09:12:48.232Z,98.58
2024-01-05T09:15:17.670Z,98.83
2024-01-05T09:17:45.051Z,97.52
2024-01-05T09:20:13.756Z,97.64
2024-01-05T09:22:40.720Z,97.50
2024-01-05T09:25:09.490Z,97.66
2024-01-05T09:27:36.577Z,96.14
2024-01-05T09:30:04.704Z,95.90
2024-01-05T09:32:32.116Z,97.92
2024-01-05T09:34:59.248Z,96.99
2024-01-05T09:37:26.100Z,93.99
2024-01-05T09:39:53.944Z,94.95
2024-01-05T09:42:20.978Z,91.97
2024-01-05T09:44:49.446Z,91.28
2024-01-05T09:47:18.620Z,89.15
2024-01-05T09:49:50.327Z,88.56
2024-01-05T09:52:21.403Z,88.89
2024-01-05T09:54:48.207Z,88.07
2024-01-05T09:57:19.108Z,87.96
2024-01-05T09:59:48.114Z,88.60
2024-01-05T10:02:18.637Z,85.11
2024-01-05T10:04:45.532Z,88.15
2024-01-05T10:07:12.518Z,87.52
2024-01-05T10:09:50.941Z,89.03
2024-01-05T10:12:19.193Z,91.72
2024-01-05T10:14:47.983Z,92.16
2024-01-05T10:17:17.131Z,89.63
2024-01-05T10:19:44.809Z,92.58
2024-01-05T10:22:13.560Z,90.22
2024-01-05T10:24:42.107Z,89.43
2024-01-05T10:27:11.030Z,88.88
2024-01-05T10:29:39.985Z,88.02
2024-01-05T10:32:20.562Z,86.89
2024-01-05T10:34:49.955Z,87.36
2024-01-05T10:37:18.449Z,89.09
2024-01-05T10:39:49.887Z,88.10
2024-01-05T10:42:25.933Z,87.07
2024-01-05T10:44:55.037Z,85.24
2024-01-05T10:47:23.445Z,84.93
2024-01-05T10:49:52.633Z,84.26
2024-01-05T10:52:29.594Z,84.31
2024-01-05T10:54:56.456Z,83.04
2024-01-05T10:57:25.252Z,82.54
2024-01-05T10:59:55.663Z,84.90
2024-01-05T11:02:39.995Z,84.24
2024-01-05T11:05:12.584Z,83.19
2024-01-05T11:07:40.911Z,83.01
2024-01-05T11:10:22.505Z,81.47
2024-01-05T11:13:10.736Z,80.76
2024-01-05T11:16:18.221Z,81.02
2024-01-05T11:18:45.134Z,82.32
2024-01-05T11:21:17.828Z,81.08
2024-01-05T11:23:45.732Z,81.37
2024-01-05T11:26:33.512Z,78.98
2024-01-05T11:29:00.317Z,77.67
2024-01-05T11:31:54.064Z,78.99
2024-01-05T11:34:30.031Z,80.39
2024-01-05T11:36:57.034Z,77.36
2024-01-05T11:39:49.008Z,78.05
2024-01-05T11:42:25.099Z,77.41
2024-01-05T11:44:53.000Z,77.13
2024-01-05T11:47:47.691Z,76.16
2024-01-05T11:50:23.760Z,75.80
2024-01-05T11:53:23.968Z,75.21
2024-01-05T11:55:57.344Z,75.22
2024-01-05T11:58:28.129Z,75.74
2024-01-05T12:00:59.269Z,75.77
2024-01-05T12:03:27.240Z,77.46
2024-01-05T12:05:56.736Z,79.58
2024-01-05T12:08:24.132Z,79.99
2024-01-05T12:10:57.903Z,78.62
2024-01-05T12:13:28.123Z,76.18
2024-01-05T12:16:01.389Z,76.84
2024-01-05T12:18:38.276Z,76.95
2024-01-05T12:21:08.086Z,77.47
2024-01-05T12:23:35.929Z,76.55
2024-01-05T12:26:04.824Z,77.35
2024-01-05T12:28:34.596Z,81.31
2024-01-05T12:31:02.525Z,79.99
2024-01-05T12:33:31.379Z,80.04
2024-01-05T12:35:58.310Z,78.43
2024-01-05T12:38:30.778Z,79.67
2024-01-05T12:41:17.427Z,79.89
2024-01-05T12:43:49.563Z,79.16
2024-01-05T12:46:17.395Z,79.34
2024-01-05T12:48:45.207Z,77.37
2024-01-05T12:51:21.224Z,78.47
2024-01-05T12:53:59.384Z,77.56
2024-01-05T12:56:26.638Z,77.68
2024-01-05T12:58:54.804Z,79.56
2024-01-05T13:01:24.820Z,78.10
2024-01-05T13:04:01.530Z,78.22
2024-01-05T13:06:32.756Z,79.69
2024-01-05T13:09:00.585Z,78.80
2024-01-05T13:11:28.183Z,78.30
2024-01-05T13:13:56.040Z,74.88
2024-01-05T13:16:23.520Z,75.98
2024-01-05T13:18:51.186Z,82.92
2024-01-05T13:21:18.838Z,84.41
2024-01-05T13:23:48.252Z,82.50
2024-01-05T13:26:15.848Z,83.02
2024-01-05T13:28:43.458Z,82.15
2024-01-05T13:31:11.202Z,79.70
2024-01-05T13:33:39.065Z,79.11
2024-01-05T13:36:06.987Z,77.83
2024-01-05T13:38:33.885Z,77.96
2024-01-05T13:41:00.637Z,79.98
2024-01-05T13:43:27.377Z,78.05
2024-01-05T13:45:56.934Z,77.38
2024-01-05T13:48:23.924Z,79.27
2024-01-05T13:50:50.833Z,78.23
2024-01-05T13:53:17.615Z,77.50
2024-01-05T13:55:44.403Z,78.84
2024-01-05T13:58:11.809Z,77.62
2024-01-05T14:00:39.934Z,78.39
2024-01-05T14:03:07.652Z,80.56
2024-01-05T14:05:35.217Z,79.32
2024-01-05T14:08:02.938Z,80.78
2024-01-05T14:10:30.465Z,79.88
2024-01-05T14:12:59.725Z,77.29
2024-01-05T14:15:27.754Z,76.89
2024-01-05T14:17:55.600Z,75.90
2024-01-05T14:20:23.221Z,76.21
2024-01-05T14:22:50.826Z,74.17
2024-01-05T14:25:18.278Z,73.98
2024-01-05T14:27:45.877Z,73.39
2024-01-05T14:30:14.192Z,74.41
2024-01-05T14:32:41.916Z,74.23
2024-01-05T14:35:09.706Z,73.66
2024-01-05T14:37:39.678Z,72.54
2024-01-05T14:40:10.390Z,72.07
2024-01-05T14:42:38.604Z,69.03
2024-01-05T14:45:08.376Z,70.53
2024-01-05T14:47:36.296Z,72.35
2024-01-05T14:50:04.695Z,72.11
2024-01-05T14:52:32.366Z,72.26
2024-01-05T14:55:00.842Z,71.96
2024-01-05T14:57:28.494Z,73.42
2024-01-05T14:59:56.573Z,72.38
2024-01-05T15:02:24.253Z,71.94
2024-01-05T15:04:51.771Z,73.50
2024-01-05T15:07:19.471Z,73.48
2024-01-05T15:09:47.507Z,72.80
2024-01-05T15:12:15.320Z,73.32
2024-01-05T15:14:44.400Z,72.88
2024-01-05T15:17:11.990Z,71.46
2024-01-05T15:19:42.921Z,72.65
2024-01-05T15:22:10.974Z,72.91
2024-01-05T15:24:40.247Z,73.28
2024-01-05T15:27:07.931Z,72.68
2024-01-05T15:29:39.619Z,73.09
2024-01-05T15:32:07.298Z,73.65
2024-01-05T15:34:35.009Z,73.41
2024-01-05T15:37:02.960Z,81.76
2024-01-05T15:39:30.500Z,79.48
2024-01-05T15:41:57.781Z,79.01
2024-01-05T15:44:25.047Z,77.58
2024-01-05T15:46:52.665Z,77.69
2024-01-05T15:49:20.205Z,77.08
2024-01-05T15:51:50.124Z,78.30
2024-01-05T15:54:18.432Z,77.17
2024-01-05T15:56:46.150Z,75.63
2024-01-05T15:59:13.831Z,79.28
2024-01-05T16:01:42.094Z,80.89
2024-01-05T16:04:10.230Z,78.66
2024-01-05T16:06:37.915Z,78.30
2024-01-05T16:09:06.620Z,79.99
2024-01-05T16:11:33.777Z,79.69
2024-01-05T16:14:01.605Z,81.64
2024-01-05T16:16:28.824Z,81.77
2024-01-05T16:18:56.446Z,81.64
2024-01-05T16:21:25.572Z,81.97
2024-01-05T16:23:53.396Z,82.01
2024-01-05T16:26:20.557Z,88.82
2024-01-05T16:28:47.645Z,90.43
2024-01-05T16:31:15.053Z,88.89
2024-01-05T16:33:42.482Z,87.61
2024-01-05T16:36:10.426Z,88.49
2024-01-05T16:38:37.869Z,87.96
2024-01-05T16:41:10.320Z,85.92
2024-01-05T16:43:37.935Z,83.33
2024-01-05T16:46:05.563Z,83.17
2024-01-05T16:48:32.543Z,84.10
2024-01-05T16:50:59.424Z,85.77
2024-01-05T16:53:27.027Z,84.20
2024-01-05T16:55:53.831Z,83.50
2024-01-05T16:58:20.593Z,82.85
2024-01-05T17:00:47.670Z,82.15
2024-01-05T17:03:15.804Z,82.58
2024-01-05T17:05:49.070Z,83.32
2024-01-05T17:08:16.660Z,90.52
2024-01-05T17:10:44.360Z,90.07
2024-01-05T17:13:11.837Z,88.61
2024-01-05T17:15:39.507Z,89.55
2024-01-05T17:18:07.372Z,95.57
2024-01-05T17:20:35.464Z,94.32
2024-01-05T17:23:03.263Z,92.55
2024-01-05T17:25:30.649Z,90.31
2024-01-05T17:27:58.133Z,88.85
2024-01-05T17:30:26.315Z,88.77
2024-01-05T17:32:53.903Z,87.83
2024-01-05T17:35:21.482Z,90.07
2024-01-05T17:37:49.082Z,93.04
2024-01-05T17:40:18.979Z,94.90
2024-01-05T17:42:46.834Z,96.08
2024-01-05T17:45:14.946Z,93.18
2024-01-05T17:47:42.617Z,92.75
2024-01-05T17:50:10.569Z,93.60
2024-01-05T17:52:38.052Z,94.85
2024-01-05T17:55:05.761Z,91.71
2024-01-05T17:57:33.343Z,94.46
2024-01-05T18:00:00.788Z,92.22
2024-01-05T18:02:28.520Z,90.12
2024-01-05T18:04:56.376Z,90.87
2024-01-05T18:07:24.077Z,92.03
2024-01-05T18:09:51.569Z,92.81
2024-01-05T18:12:19.032Z,96.61
2024-01-05T18:14:46.997Z,93.25
2024-01-05T18:17:15.356Z,92.37
2024-01-05T18:19:47.956Z,90.71
2024-01-05T18:22:17.710Z,93.96
2024-01-05T18:24:46.884Z,91.44
2024-01-05T18:27:15.280Z,91.10
2024-01-05T18:29:45.663Z,92.55
2024-01-05T18:32:15.328Z,91.51
2024-01-05T18:34:48.699Z,90.38
2024-01-05T18:37:17.826Z,93.01
2024-01-05T18:39:45.871Z,92.53
2024-01-05T18:42:13.472Z,91.30
2024-01-05T18:44:44.694Z,90.67
2024-01-05T18:47:11.948Z,91.22
2024-01-05T18:49:39.245Z,90.96
2024-01-05T18:52:06.533Z,90.29
2024-01-05T18:54:34.337Z,93.53
2024-01-05T18:57:01.665Z,94.58
2024-01-05T18:59:28.769Z,93.75
2024-01-05T19:01:56.365Z,94.63
2024-01-05T19:04:23.928Z,95.29
2024-01-05T19:06:51.394Z,98.46
2024-01-05T19:09:20.008Z,100.00
2024-01-05T19:11:47.303Z,100.00
2024-01-05T19:14:14.504Z,98.36
2024-01-05T19:16:44.453Z,95.80
2024-01-05T19:19:13.245Z,95.82
2024-01-05T19:21:50.112Z,93.50
2024-01-05T19:24:23.310Z,93.62
2024-01-05T19:26:50.530Z,93.07
2024-01-05T19:29:17.227Z,93.29
2024-01-05T19:31:44.532Z,97.39
2024-01-05T19:34:13.449Z,98.05
2024-01-05T19:36:47.067Z,96.50
2024-01-05T19:39:14.568Z,95.44
2024-01-05T19:41:42.859Z,95.07
2024-01-05T19:44:12.924Z,93.21
2024-01-05T19:46:40.895Z,95.17
2024-01-05T19:49:07.864Z,96.62
2024-01-05T19:51:34.705Z,95.53
2024-01-05T19:54:01.526Z,96.06
2024-01-05T19:56:28.276Z,97.38
2024-01-05T19:58:56.135Z,100.00
2024-01-05T20:01:23.353Z,100.00
2024-01-05T20:03:50.462Z,100.00
2024-01-05T20:06:17.885Z,100.00
2024-01-05T20:08:45.568Z,98.96
2024-01-05T20:11:14.729Z,98.95
2024-01-05T20:13:42.017Z,98.21
2024-01-05T20:16:10.812Z,100.00
2024-01-05T20:18:38.272Z,100.00
2024-01-05T20:21:13.045Z,100.00
2024-01-05T20:23:41.778Z,98.93
2024-01-05T20:26:10.987Z,99.77
2024-01-05T20:28:37.706Z,99.65
2024-01-05T20:31:04.901Z,100.00
2024-01-05T20:33:32.305Z,100.00
2024-01-05T20:35:59.347Z,100.00
2024-01-05T20:38:26.124Z,99.74
2024-01-05T20:40:52.952Z,98.85
2024-01-05T20:43:19.716Z,100.00
2024-01-05T20:45:46.882Z,100.00
2024-01-05T20:48:13.929Z,100.00
2024-01-05T20:50:40.755Z,100.00
2024-01-05T20:53:11.810Z,100.00
2024-01-05T20:55:39.572Z,100.00
2024-01-05T20:58:06.298Z,100.00
2024-01-05T21:00:33.244Z,100.00
2024-01-05T21:03:00.242Z,100.00
2024-01-05T21:05:26.998Z,98.89
2024-01-05T21:07:54.198Z,98.05
2024-01-05T21:10:20.898Z,100.00
2024-01-05T21:12:47.682Z,100.00
2024-01-05T21:15:14.544Z,100.00
2024-01-05T21:17:41.335Z,100.00
2024-01-05T21:20:08.894Z,100.00
2024-01-05T21:22:36.330Z,100.00
2024-01-05T21:25:06.710Z,100.00
2024-01-05T21:27:33.706Z,100.00
2024-01-05T21:30:00.609Z,100.00
2024-01-05T21:32:28.871Z,100.00
2024-01-05T21:34:56.474Z,100.00
2024-01-05T21:37:24.572Z,100.00
2024-01-05T21:39:51.434Z,100.00
2024-01-05T21:42:21.225Z,100.00
2024-01-05T21:44:48.109Z,100.00
2024-01-05T21:47:14.914Z,100.00
2024-01-05T21:49:41.789Z,100.00
2024-01-05T21:52:08.949Z,100.00
2024-01-05T21:54:36.299Z,100.00
2024-01-05T21:57:03.374Z,100.00
2024-01-05T21:59:33.432Z,97.96
2024-01-05T22:02:01.419Z,97.73
2024-01-05T22:04:28.408Z,97.57
2024-01-05T22:06:57.474Z,96.46
2024-01-05T22:09:24.930Z,94.18
2024-01-05T22:11:51.700Z,95.50
2024-01-05T22:14:18.553Z,97.18
2024-01-05T22:16:45.989Z,97.92
2024-01-05T22:19:12.982Z,96.58
2024-01-05T22:21:42.137Z,97.54
2024-01-05T22:24:09.136Z,99.17
2024-01-05T22:26:36.370Z,98.70
2024-01-05T22:29:04.629Z,100.00
2024-01-05T22:31:32.792Z,100.00
2024-01-05T22:34:00.398Z,98.64
2024-01-05T22:36:27.453Z,100.00
2024-01-05T22:38:54.289Z,100.00
2024-01-05T22:41:23.477Z,100.00
2024-01-05T22:43:50.457Z,100.00
2024-01-05T22:46:18.458Z,100.00
2024-01-05T22:48:47.372Z,100.00
2024-01-05T22:51:40.754Z,100.00
2024-01-05T22:54:07.572Z,100.00
2024-01-05T22:56:34.389Z,100.00
2024-01-05T22:59:01.138Z,100.00
2024-01-05T23:01:27.893Z,100.00
2024-01-05T23:03:54.941Z,100.00
2024-01-05T23:06:23.855Z,97.73
2024-01-05T23:08:50.815Z,100.00
2024-01-05T23:11:17.591Z,100.00
2024-01-05T23:13:45.031Z,100.00
2024-01-05T23:16:12.198Z,100.00
2024-01-05T23:18:39.098Z,100.00
2024-01-05T23:21:05.950Z,100.00
2024-01-05T23:23:32.789Z,100.00
2024-01-05T23:25:59.539Z,100.00
2024-01-05T23:28:26.265Z,99.90
2024-01-05T23:30:53.401Z,100.00
2024-01-05T23:33:20.830Z,100.00
2024-01-05T23:35:47.893Z,99.67
2024-01-05T23:38:14.621Z,100.00
2024-01-05T23:40:41.659Z,98.31
2024-01-05T23:43:08.384Z,97.23
2024-01-05T23:45:35.363Z,98.64
2024-01-05T23:48:02.374Z,100.00
2024-01-05T23:50:29.199Z,100.00
2024-01-05T23:52:56.039Z,98.38
2024-01-05T23:55:23.424Z,100.00
2024-01-05T23:57:50.291Z,100.00
